Wetterdaten: Woche 13.03.17 - 19.03.17 (KW11)
Datum Zeit Temp. Auen Feucht Auen Luftdruck Regen Richtung Windben
13.03.2017 00:00 -1,5 C 89 % 1020,1 hPa 0,0 mm O 1,2 km/h (1 Bft)
13.03.2017 01:00 -2,3 C 91 % 1020,9 hPa 0,0 mm O 0,9 km/h (0 Bft)
13.03.2017 02:00 -2,3 C 91 % 1021,2 hPa 0,0 mm O-SO 3,3 km/h (1 Bft)
13.03.2017 03:00 -2,5 C 92 % 1021,7 hPa 0,0 mm O-SO 1,5 km/h (1 Bft)
13.03.2017 04:00 -2,6 C 92 % 1022,1 hPa 0,0 mm SO 0,1 km/h (0 Bft)
13.03.2017 05:00 -3,3 C 93 % 1022,8 hPa 0,0 mm SO 0,3 km/h (0 Bft)
13.03.2017 06:00 -3,3 C 94 % 1023,4 hPa 0,0 mm SO 0,0 km/h (0 Bft)
13.03.2017 07:00 -1,9 C 93 % 1024,2 hPa 0,0 mm SO 0,4 km/h (0 Bft)
13.03.2017 08:00 0,3 C 92 % 1025,1 hPa 0,0 mm O 8,7 km/h (2 Bft)
13.03.2017 09:00 2,5 C 88 % 1025,5 hPa 0,0 mm O-SO 11,6 km/h (2 Bft)
13.03.2017 10:00 4,8 C 77 % 1025,7 hPa 0,0 mm O 15,4 km/h (3 Bft)
13.03.2017 11:00 6,5 C 71 % 1025,9 hPa 0,0 mm O 12,9 km/h (3 Bft)
13.03.2017 12:00 8,0 C 67 % 1025,8 hPa 0,0 mm O 12,1 km/h (2 Bft)
13.03.2017 13:00 8,8 C 63 % 1025,4 hPa 0,0 mm O-NO 9,7 km/h (2 Bft)
13.03.2017 14:00 9,7 C 59 % 1025,5 hPa 0,0 mm W 9,0 km/h (2 Bft)
13.03.2017 15:00 10,4 C 54 % 1025,5 hPa 0,0 mm W 9,7 km/h (2 Bft)
13.03.2017 16:00 9,7 C 58 % 1025,7 hPa 0,0 mm SO 5,2 km/h (1 Bft)
13.03.2017 17:00 7,7 C 68 % 1026,2 hPa 0,0 mm SO 0,7 km/h (0 Bft)
13.03.2017 18:00 4,9 C 76 % 1027,2 hPa 0,0 mm SO 0,4 km/h (0 Bft)
13.03.2017 19:00 3,5 C 81 % 1027,9 hPa 0,0 mm SO 2,1 km/h (1 Bft)
13.03.2017 20:00 2,8 C 84 % 1028,6 hPa 0,0 mm W-SW 1,6 km/h (1 Bft)
13.03.2017 21:00 2,2 C 86 % 1029,2 hPa 0,0 mm W-SW 1,5 km/h (1 Bft)
13.03.2017 22:00 2,0 C 88 % 1029,7 hPa 0,0 mm W-SW 0,3 km/h (0 Bft)
13.03.2017 23:00 1,8 C 89 % 1030,0 hPa 0,0 mm W-SW 0,9 km/h (0 Bft)
14.03.2017 00:00 2,2 C 89 % 1030,5 hPa 0,0 mm W-SW 2,5 km/h (1 Bft)
14.03.2017 01:00 2,1 C 89 % 1031,0 hPa 0,0 mm W-SW 1,1 km/h (0 Bft)
14.03.2017 02:00 1,7 C 91 % 1030,9 hPa 0,0 mm W-SW 0,0 km/h (0 Bft)
14.03.2017 03:00 1,9 C 91 % 1030,7 hPa 0,0 mm W-SW 0,1 km/h (0 Bft)
14.03.2017 04:00 1,5 C 91 % 1031,0 hPa 0,0 mm W-SW 0,9 km/h (0 Bft)
14.03.2017 05:00 0,6 C 92 % 1031,7 hPa 0,0 mm W-SW 0,8 km/h (0 Bft)
14.03.2017 06:00 0,3 C 92 % 1032,1 hPa 0,0 mm W-SW 0,8 km/h (0 Bft)
14.03.2017 07:00 2,9 C 88 % 1032,4 hPa 0,0 mm W-SW 2,8 km/h (1 Bft)
14.03.2017 08:00 6,4 C 74 % 1032,8 hPa 0,0 mm W 12,1 km/h (2 Bft)
14.03.2017 09:00 7,4 C 67 % 1033,2 hPa 0,0 mm W 15,0 km/h (3 Bft)
14.03.2017 10:00 8,6 C 61 % 1033,5 hPa 0,0 mm W 13,4 km/h (3 Bft)
14.03.2017 11:00 9,3 C 57 % 1033,3 hPa 0,0 mm W-SW 14,9 km/h (3 Bft)
14.03.2017 12:00 9,9 C 55 % 1032,6 hPa 0,0 mm W 12,8 km/h (3 Bft)
14.03.2017 13:00 10,6 C 51 % 1032,1 hPa 0,0 mm W 10,6 km/h (2 Bft)
14.03.2017 14:00 11,1 C 52 % 1032,1 hPa 0,0 mm W 13,0 km/h (3 Bft)
14.03.2017 15:00 10,6 C 56 % 1032,0 hPa 0,0 mm W 11,7 km/h (2 Bft)
14.03.2017 16:00 10,2 C 60 % 1031,8 hPa 0,0 mm W 5,7 km/h (1 Bft)
14.03.2017 17:00 9,0 C 69 % 1031,5 hPa 0,0 mm W 0,7 km/h (0 Bft)
14.03.2017 18:00 7,7 C 74 % 1031,7 hPa 0,0 mm W 1,3 km/h (1 Bft)
14.03.2017 19:00 6,7 C 79 % 1031,8 hPa 0,0 mm W 1,7 km/h (1 Bft)
14.03.2017 20:00 5,8 C 83 % 1032,1 hPa 0,0 mm W 1,2 km/h (1 Bft)
14.03.2017 21:00 5,3 C 85 % 1032,4 hPa 0,0 mm W 2,0 km/h (1 Bft)
14.03.2017 22:00 4,2 C 87 % 1032,4 hPa 0,0 mm W 0,7 km/h (0 Bft)
14.03.2017 23:00 2,5 C 89 % 1032,6 hPa 0,0 mm W 1,3 km/h (1 Bft)
15.03.2017 00:00 2,1 C 91 % 1032,2 hPa 0,0 mm W 2,7 km/h (1 Bft)
15.03.2017 01:00 2,3 C 90 % 1032,0 hPa 0,0 mm W 1,5 km/h (1 Bft)
15.03.2017 02:00 1,6 C 91 % 1031,7 hPa 0,0 mm W 1,5 km/h (1 Bft)
15.03.2017 03:00 1,4 C 92 % 1031,5 hPa 0,0 mm W 0,3 km/h (0 Bft)
15.03.2017 04:00 1,1 C 92 % 1031,3 hPa 0,0 mm W 2,4 km/h (1 Bft)
15.03.2017 05:00 0,9 C 92 % 1031,5 hPa 0,0 mm W 0,4 km/h (0 Bft)
15.03.2017 06:00 0,2 C 93 % 1031,9 hPa 0,0 mm W 0,0 km/h (0 Bft)
15.03.2017 07:00 2,5 C 92 % 1032,0 hPa 0,0 mm W 0,3 km/h (0 Bft)
15.03.2017 08:00 5,8 C 86 % 1032,0 hPa 0,0 mm O 2,8 km/h (1 Bft)
15.03.2017 09:00 9,3 C 73 % 1031,9 hPa 0,0 mm W 7,0 km/h (2 Bft)
15.03.2017 10:00 10,9 C 66 % 1032,3 hPa 0,0 mm W 12,2 km/h (2 Bft)
15.03.2017 11:00 12,0 C 65 % 1032,2 hPa 0,0 mm W 12,2 km/h (2 Bft)
15.03.2017 12:00 12,2 C 64 % 1031,7 hPa 0,0 mm W 13,8 km/h (3 Bft)
15.03.2017 13:00 12,9 C 61 % 1031,2 hPa 0,0 mm W 14,4 km/h (3 Bft)
15.03.2017 14:00 13,1 C 59 % 1030,6 hPa 0,0 mm W 14,8 km/h (3 Bft)
15.03.2017 15:00 13,0 C 58 % 1029,4 hPa 0,0 mm W-SW 13,7 km/h (3 Bft)
15.03.2017 16:00 12,6 C 60 % 1029,3 hPa 0,0 mm W-SW 11,2 km/h (2 Bft)
15.03.2017 17:00 11,0 C 68 % 1029,5 hPa 0,0 mm W-SW 6,0 km/h (2 Bft)
15.03.2017 18:00 8,7 C 78 % 1030,1 hPa 0,0 mm W 2,7 km/h (1 Bft)
15.03.2017 19:00 6,2 C 85 % 1030,3 hPa 0,0 mm W 0,9 km/h (0 Bft)
15.03.2017 20:00 5,1 C 89 % 1030,5 hPa 0,0 mm W 1,5 km/h (1 Bft)
15.03.2017 21:00 4,4 C 90 % 1030,8 hPa 0,0 mm W 1,2 km/h (1 Bft)
15.03.2017 22:00 3,7 C 92 % 1030,9 hPa 0,0 mm W 0,0 km/h (0 Bft)
15.03.2017 23:00 4,7 C 92 % 1030,6 hPa 0,0 mm W 0,0 km/h (0 Bft)
16.03.2017 00:00 3,8 C 92 % 1030,0 hPa 0,0 mm W 0,0 km/h (0 Bft)
16.03.2017 01:00 2,7 C 93 % 1029,5 hPa 0,0 mm W 1,7 km/h (1 Bft)
16.03.2017 02:00 3,6 C 93 % 1029,1 hPa 0,0 mm W 1,6 km/h (1 Bft)
16.03.2017 03:00 3,6 C 94 % 1028,7 hPa 0,0 mm W 0,0 km/h (0 Bft)
16.03.2017 04:00 4,1 C 94 % 1028,3 hPa 0,0 mm W 1,1 km/h (0 Bft)
16.03.2017 05:00 4,6 C 93 % 1028,0 hPa 0,0 mm W 1,9 km/h (1 Bft)
16.03.2017 06:00 3,9 C 93 % 1027,8 hPa 0,0 mm W 0,7 km/h (0 Bft)
16.03.2017 07:00 3,9 C 94 % 1027,9 hPa 0,0 mm W-SW 0,9 km/h (0 Bft)
16.03.2017 08:00 6,8 C 91 % 1027,7 hPa 0,0 mm W-SW 3,9 km/h (1 Bft)
16.03.2017 09:00 10,6 C 77 % 1027,3 hPa 0,0 mm W-SW 4,8 km/h (1 Bft)
16.03.2017 10:00 11,2 C 71 % 1027,0 hPa 0,0 mm W 6,3 km/h (2 Bft)
16.03.2017 11:00 12,9 C 67 % 1026,5 hPa 0,0 mm W 6,1 km/h (2 Bft)
16.03.2017 12:00 14,2 C 52 % 1025,7 hPa 0,0 mm W 10,8 km/h (2 Bft)
16.03.2017 13:00 14,3 C 42 % 1025,0 hPa 0,0 mm W 9,9 km/h (2 Bft)
16.03.2017 14:00 14,0 C 34 % 1024,6 hPa 0,0 mm W 9,9 km/h (2 Bft)
16.03.2017 15:00 13,9 C 33 % 1023,9 hPa 0,0 mm W 7,8 km/h (2 Bft)
16.03.2017 16:00 13,7 C 32 % 1023,3 hPa 0,0 mm W 8,3 km/h (2 Bft)
16.03.2017 17:00 11,4 C 48 % 1023,0 hPa 0,0 mm W 0,9 km/h (0 Bft)
16.03.2017 18:00 7,6 C 62 % 1022,7 hPa 0,0 mm W 1,2 km/h (1 Bft)
16.03.2017 19:00 5,1 C 73 % 1022,7 hPa 0,0 mm W 2,4 km/h (1 Bft)
16.03.2017 20:00 4,1 C 78 % 1022,7 hPa 0,0 mm W 2,9 km/h (1 Bft)
16.03.2017 21:00 3,5 C 81 % 1022,6 hPa 0,0 mm W 2,8 km/h (1 Bft)
16.03.2017 22:00 2,2 C 85 % 1022,4 hPa 0,0 mm W 1,3 km/h (1 Bft)
16.03.2017 23:00 1,2 C 88 % 1021,9 hPa 0,0 mm W 0,9 km/h (0 Bft)
17.03.2017 00:00 0,9 C 88 % 1021,5 hPa 0,0 mm W 1,1 km/h (0 Bft)
17.03.2017 01:00 0,2 C 89 % 1021,0 hPa 0,0 mm W 0,9 km/h (0 Bft)
17.03.2017 02:00 -0,3 C 90 % 1020,3 hPa 0,0 mm W 0,8 km/h (0 Bft)
17.03.2017 03:00 -0,4 C 90 % 1019,7 hPa 0,0 mm W 1,9 km/h (1 Bft)
17.03.2017 04:00 -0,8 C 91 % 1019,2 hPa 0,0 mm W 1,3 km/h (1 Bft)
17.03.2017 05:00 -0,6 C 91 % 1018,9 hPa 0,0 mm W 2,0 km/h (1 Bft)
17.03.2017 06:00 -0,5 C 91 % 1019,1 hPa 0,0 mm W 0,5 km/h (0 Bft)
17.03.2017 07:00 2,1 C 89 % 1018,9 hPa 0,0 mm W 1,1 km/h (0 Bft)
17.03.2017 08:00 6,7 C 78 % 1018,6 hPa 0,0 mm W 1,7 km/h (1 Bft)
17.03.2017 09:00 9,2 C 68 % 1018,2 hPa 0,0 mm SO 2,4 km/h (1 Bft)
17.03.2017 10:00 14,0 C 55 % 1017,5 hPa 0,0 mm W 10,1 km/h (2 Bft)
17.03.2017 11:00 17,7 C 45 % 1016,9 hPa 0,0 mm W 19,8 km/h (4 Bft)
17.03.2017 12:00 18,7 C 43 % 1015,9 hPa 0,0 mm W 23,6 km/h (4 Bft)
17.03.2017 13:00 18,2 C 47 % 1015,0 hPa 0,0 mm W 21,0 km/h (4 Bft)
17.03.2017 14:00 19,0 C 45 % 1013,6 hPa 0,0 mm W 22,8 km/h (4 Bft)
17.03.2017 15:00 18,5 C 43 % 1012,5 hPa 0,0 mm W 21,2 km/h (4 Bft)
17.03.2017 16:00 17,8 C 42 % 1011,7 hPa 0,0 mm W-SW 21,0 km/h (4 Bft)
17.03.2017 17:00 16,9 C 45 % 1011,1 hPa 0,0 mm W 20,6 km/h (4 Bft)
17.03.2017 18:00 15,9 C 49 % 1011,3 hPa 0,0 mm W 16,9 km/h (3 Bft)
17.03.2017 19:00 13,7 C 64 % 1012,8 hPa 0,0 mm W 21,5 km/h (4 Bft)
17.03.2017 20:00 10,8 C 83 % 1013,4 hPa 0,0 mm W 7,5 km/h (2 Bft)
17.03.2017 21:00 10,6 C 86 % 1013,6 hPa 1,2 mm W 4,7 km/h (1 Bft)
17.03.2017 22:00 10,1 C 91 % 1013,2 hPa 1,2 mm W 4,3 km/h (1 Bft)
17.03.2017 23:00 9,7 C 92 % 1013,4 hPa 3,4 mm W 7,1 km/h (2 Bft)
18.03.2017 00:00 9,1 C 93 % 1013,1 hPa 1,2 mm W-SW 12,9 km/h (3 Bft)
18.03.2017 01:00 9,0 C 93 % 1012,4 hPa 0,2 mm W 10,1 km/h (2 Bft)
18.03.2017 02:00 8,6 C 93 % 1010,9 hPa 0,0 mm W 4,3 km/h (1 Bft)
18.03.2017 03:00 8,2 C 93 % 1009,7 hPa 0,0 mm W 6,9 km/h (2 Bft)
18.03.2017 04:00 7,5 C 93 % 1008,8 hPa 0,0 mm W 4,5 km/h (1 Bft)
18.03.2017 05:00 7,4 C 94 % 1008,6 hPa 0,0 mm W 6,7 km/h (2 Bft)
18.03.2017 06:00 8,1 C 93 % 1008,4 hPa 0,0 mm W 10,1 km/h (2 Bft)
18.03.2017 07:00 8,4 C 88 % 1008,5 hPa 0,4 mm W 21,6 km/h (4 Bft)
18.03.2017 08:00 8,5 C 86 % 1007,9 hPa 0,6 mm W 15,3 km/h (3 Bft)
18.03.2017 09:00 8,4 C 90 % 1007,7 hPa 1,6 mm W 11,4 km/h (2 Bft)
18.03.2017 10:00 8,0 C 93 % 1008,0 hPa 3,2 mm W 10,1 km/h (2 Bft)
18.03.2017 11:00 7,7 C 94 % 1009,0 hPa 5,6 mm W 18,1 km/h (3 Bft)
18.03.2017 12:00 7,6 C 93 % 1009,6 hPa 4,6 mm W 32,6 km/h (5 Bft)
18.03.2017 13:00 7,6 C 92 % 1009,8 hPa 2,6 mm W 27,8 km/h (4 Bft)
18.03.2017 14:00 7,4 C 92 % 1009,9 hPa 3,8 mm W-SW 28,7 km/h (4 Bft)
18.03.2017 15:00 7,1 C 93 % 1010,1 hPa 3,2 mm W 28,4 km/h (4 Bft)
18.03.2017 16:00 7,2 C 93 % 1010,1 hPa 3,2 mm W 26,7 km/h (4 Bft)
18.03.2017 17:00 7,2 C 93 % 1010,4 hPa 4,4 mm W 21,3 km/h (4 Bft)
18.03.2017 18:00 7,2 C 94 % 1010,7 hPa 3,8 mm W 15,6 km/h (3 Bft)
18.03.2017 19:00 7,6 C 93 % 1010,5 hPa 2,4 mm W 23,3 km/h (4 Bft)
18.03.2017 20:00 7,7 C 93 % 1010,2 hPa 2,8 mm W 21,6 km/h (4 Bft)
18.03.2017 21:00 7,8 C 93 % 1009,9 hPa 2,2 mm W 20,8 km/h (4 Bft)
18.03.2017 22:00 8,0 C 92 % 1010,0 hPa 0,8 mm W 21,1 km/h (4 Bft)
18.03.2017 23:00 8,4 C 91 % 1010,4 hPa 0,2 mm W 27,8 km/h (4 Bft)
19.03.2017 00:00 8,7 C 90 % 1010,8 hPa 1,0 mm W 28,2 km/h (4 Bft)
19.03.2017 01:00 8,4 C 92 % 1011,1 hPa 2,0 mm W-SW 27,2 km/h (4 Bft)
19.03.2017 02:00 8,4 C 92 % 1011,2 hPa 0,4 mm W 24,1 km/h (4 Bft)
19.03.2017 03:00 8,4 C 93 % 1011,2 hPa 2,2 mm W 24,0 km/h (4 Bft)
19.03.2017 04:00 8,3 C 93 % 1011,5 hPa 3,0 mm W-SW 24,7 km/h (4 Bft)
19.03.2017 05:00 8,4 C 94 % 1011,9 hPa 3,2 mm W 22,1 km/h (4 Bft)
19.03.2017 06:00 8,2 C 94 % 1012,3 hPa 4,2 mm W 20,4 km/h (4 Bft)
19.03.2017 07:00 7,6 C 94 % 1012,9 hPa 4,4 mm W 12,6 km/h (3 Bft)
19.03.2017 08:00 7,9 C 94 % 1013,0 hPa 3,0 mm W 13,3 km/h (3 Bft)
19.03.2017 09:00 8,5 C 94 % 1013,4 hPa 2,0 mm W 19,0 km/h (3 Bft)
19.03.2017 10:00 9,2 C 93 % 1013,4 hPa 0,0 mm W 13,4 km/h (3 Bft)
19.03.2017 11:00 10,2 C 90 % 1013,1 hPa 0,0 mm W 12,3 km/h (3 Bft)
19.03.2017 12:00 11,2 C 88 % 1012,6 hPa 0,0 mm W 14,8 km/h (3 Bft)
19.03.2017 13:00 11,6 C 87 % 1012,0 hPa 0,0 mm W 11,7 km/h (2 Bft)
19.03.2017 14:00 12,6 C 85 % 1011,8 hPa 0,0 mm W 16,5 km/h (3 Bft)
19.03.2017 15:00 13,0 C 81 % 1011,6 hPa 0,0 mm W 16,0 km/h (3 Bft)
19.03.2017 16:00 12,9 C 82 % 1011,4 hPa 0,0 mm W 12,2 km/h (2 Bft)
19.03.2017 17:00 12,8 C 81 % 1011,2 hPa 0,0 mm W 15,2 km/h (3 Bft)
19.03.2017 18:00 12,2 C 84 % 1011,1 hPa 0,0 mm W 13,4 km/h (3 Bft)
19.03.2017 19:00 11,9 C 84 % 1011,4 hPa 0,0 mm W 11,9 km/h (2 Bft)
19.03.2017 20:00 11,5 C 86 % 1011,6 hPa 0,0 mm W 10,2 km/h (2 Bft)
19.03.2017 21:00 11,0 C 84 % 1011,5 hPa 0,2 mm W 6,7 km/h (2 Bft)
19.03.2017 22:00 9,6 C 89 % 1011,7 hPa 0,0 mm W 0,4 km/h (0 Bft)
19.03.2017 23:00 8,7 C 91 % 1011,9 hPa 0,0 mm W 0,4 km/h (0 Bft)
Min-Datum _ 13.03.17 16.03.17 18.03.17 - - 13.03.17
_ Min-Zeit 05:45 16:30 09:20 - - 00:15
Minimum _ -3,6 C 30 % 1007,6 hPa - - 0,0 km/h (0 Bft)
Max-Datum _ 17.03.17 19.03.17 14.03.17 18.03.17 - 18.03.17
_ Max-Zeit 12:40 08:30 10:05 11:45 - 12:50
Maximum _ 19,3 C 95 % 1033,6 hPa 5,6 mm - 40,2 km/h
W (6 Bft)
Durchschnitt _ 7,1 C 80 % 1021,7 hPa #78,2 mm W 8,8 km/h (2 Bft)